createdAt,value
2023-05-10T00:00:09.106Z,1042.00
2023-05-10T00:01:09.088Z,1036.00
2023-05-10T00:02:09.107Z,1039.00
2023-05-10T00:03:09.093Z,1040.00
2023-05-10T00:04:09.161Z,1031.00
2023-05-10T00:05:08.990Z,1039.00
2023-05-10T00:06:08.960Z,1036.00
2023-05-10T00:07:08.946Z,1037.00
2023-05-10T00:08:08.938Z,1036.00
2023-05-10T00:09:08.890Z,1035.00
2023-05-10T00:10:08.883Z,1036.00
2023-05-10T00:11:08.863Z,1032.00
2023-05-10T00:12:08.836Z,1029.00
2023-05-10T00:13:08.852Z,1033.00
2023-05-10T00:14:08.795Z,1036.00
2023-05-10T00:15:08.785Z,1035.00
2023-05-10T00:16:08.817Z,1033.00
2023-05-10T00:17:08.737Z,1032.00
2023-05-10T00:18:08.849Z,1035.00
2023-05-10T00:19:08.724Z,1030.00
2023-05-10T00:20:08.694Z,1034.00
2023-05-10T00:21:08.667Z,1034.00
2023-05-10T00:22:08.669Z,1028.00
2023-05-10T00:23:08.605Z,1030.00
2023-05-10T00:24:08.587Z,1024.00
2023-05-10T00:25:08.575Z,1025.00
2023-05-10T00:26:08.567Z,1024.00
2023-05-10T00:27:08.507Z,1026.00
2023-05-10T00:28:08.494Z,1028.00
2023-05-10T00:29:08.468Z,1025.00
2023-05-10T00:30:08.445Z,1030.00
2023-05-10T00:31:08.428Z,1023.00
2023-05-10T00:32:08.519Z,1022.00
2023-05-10T00:33:08.409Z,1031.00
2023-05-10T00:34:08.353Z,1026.00
2023-05-10T00:35:08.321Z,1026.00
2023-05-10T00:36:08.314Z,1020.00
2023-05-10T00:37:08.265Z,1022.00
2023-05-10T00:38:08.253Z,1017.00
2023-05-10T00:39:08.223Z,1016.00
2023-05-10T00:40:08.192Z,1025.00
2023-05-10T00:41:08.170Z,1020.00
2023-05-10T00:42:08.147Z,1022.00
2023-05-10T00:43:08.122Z,1018.00
2023-05-10T00:44:08.099Z,1024.00
2023-05-10T00:45:08.085Z,1020.00
2023-05-10T00:46:08.104Z,1017.00
2023-05-10T00:47:08.047Z,1020.00
2023-05-10T00:48:08.069Z,1014.00
2023-05-10T00:49:08.004Z,1015.00
2023-05-10T00:50:07.983Z,1014.00
2023-05-10T00:51:07.962Z,1014.00
2023-05-10T00:52:07.929Z,1016.00
2023-05-10T00:53:07.903Z,1015.00
2023-05-10T00:54:07.892Z,1013.00
2023-05-10T00:55:07.859Z,1017.00
2023-05-10T00:56:07.837Z,1018.00
2023-05-10T00:57:07.821Z,1008.00
2023-05-10T00:58:07.790Z,1013.00
2023-05-10T00:59:07.769Z,1010.00
2023-05-10T01:00:07.764Z,1014.00
2023-05-10T01:01:07.735Z,1006.00
2023-05-10T01:02:07.737Z,1012.00
2023-05-10T01:03:07.794Z,1009.00
2023-05-10T01:04:07.640Z,1012.00
2023-05-10T01:05:07.668Z,1011.00
2023-05-10T01:06:07.602Z,1009.00
2023-05-10T01:07:07.572Z,1010.00
2023-05-10T01:08:07.548Z,1012.00
2023-05-10T01:09:07.543Z,1007.00
2023-05-10T01:10:07.499Z,1006.00
2023-05-10T01:11:07.477Z,1003.00
2023-05-10T01:12:07.479Z,1002.00
2023-05-10T01:13:07.475Z,1007.00
2023-05-10T01:14:07.432Z,998.00
2023-05-10T01:15:07.417Z,1008.00
2023-05-10T01:16:07.430Z,1001.00
2023-05-10T01:17:07.355Z,1000.00
2023-05-10T01:18:07.336Z,1003.00
2023-05-10T01:19:07.341Z,1001.00
2023-05-10T01:20:07.297Z,1005.00
2023-05-10T01:21:07.272Z,1002.00
2023-05-10T01:22:07.263Z,1000.00
2023-05-10T01:23:07.245Z,1004.00
2023-05-10T01:24:07.228Z,1001.00
2023-05-10T01:25:07.254Z,1003.00
2023-05-10T01:26:07.182Z,999.00
2023-05-10T01:27:07.163Z,998.00
2023-05-10T01:28:07.233Z,995.00
2023-05-10T01:29:07.127Z,1002.00
2023-05-10T01:30:15.331Z,996.00
2023-05-10T01:31:08.117Z,998.00
2023-05-10T01:32:07.075Z,999.00
2023-05-10T01:33:07.082Z,1000.00
2023-05-10T01:34:07.016Z,1000.00
2023-05-10T01:35:07.047Z,1001.00
2023-05-10T01:36:07.630Z,993.00
2023-05-10T01:37:06.957Z,1003.00
2023-05-10T01:38:06.915Z,996.00
2023-05-10T01:39:06.926Z,998.00
2023-05-10T01:40:06.878Z,991.00
2023-05-10T01:41:06.840Z,993.00
2023-05-10T01:42:06.868Z,993.00
2023-05-10T01:43:06.817Z,994.00
2023-05-10T01:44:06.798Z,997.00
2023-05-10T01:45:06.780Z,991.00
2023-05-10T01:46:06.760Z,985.00
2023-05-10T01:47:06.746Z,990.00
2023-05-10T01:48:06.805Z,983.00
2023-05-10T01:49:06.708Z,989.00
2023-05-10T01:50:06.690Z,987.00
2023-05-10T01:51:06.657Z,986.00
2023-05-10T01:52:06.649Z,985.00
2023-05-10T01:53:06.615Z,986.00
2023-05-10T01:54:06.586Z,990.00
2023-05-10T01:55:06.583Z,983.00
2023-05-10T01:56:06.540Z,985.00
2023-05-10T01:57:06.563Z,983.00
2023-05-10T01:58:06.507Z,983.00
2023-05-10T01:59:06.487Z,983.00
2023-05-10T02:00:06.456Z,984.00
2023-05-10T02:01:06.482Z,981.00
2023-05-10T02:02:06.426Z,984.00
2023-05-10T02:03:06.488Z,979.00
2023-05-10T02:04:06.472Z,983.00
2023-05-10T02:05:06.351Z,979.00
2023-05-10T02:06:06.325Z,977.00
2023-05-10T02:07:06.292Z,977.00
2023-05-10T02:08:06.275Z,976.00
2023-05-10T02:09:06.252Z,976.00
2023-05-10T02:10:06.211Z,975.00
2023-05-10T02:11:06.185Z,979.00
2023-05-10T02:12:06.153Z,977.00
2023-05-10T02:13:06.139Z,976.00
2023-05-10T02:14:06.099Z,975.00
2023-05-10T02:15:06.076Z,969.00
2023-05-10T02:16:06.172Z,974.00
2023-05-10T02:17:06.020Z,967.00
2023-05-10T02:18:06.005Z,966.00
2023-05-10T02:19:05.978Z,971.00
2023-05-10T02:20:05.948Z,969.00
2023-05-10T02:21:05.922Z,967.00
2023-05-10T02:22:05.890Z,973.00
2023-05-10T02:23:05.885Z,966.00
2023-05-10T02:24:05.875Z,964.00
2023-05-10T02:25:05.850Z,967.00
2023-05-10T02:26:05.839Z,972.00
2023-05-10T02:27:05.824Z,969.00
2023-05-10T02:28:05.801Z,966.00
2023-05-10T02:29:05.789Z,963.00
2023-05-10T02:30:05.774Z,965.00
2023-05-10T02:31:05.747Z,969.00
2023-05-10T02:32:05.789Z,963.00
2023-05-10T02:33:05.746Z,960.00
2023-05-10T02:34:05.705Z,962.00
2023-05-10T02:35:05.700Z,961.00
2023-05-10T02:36:05.685Z,961.00
2023-05-10T02:37:05.668Z,963.00
2023-05-10T02:38:05.661Z,963.00
2023-05-10T02:39:05.641Z,961.00
2023-05-10T02:40:05.628Z,963.00
2023-05-10T02:41:05.617Z,958.00
2023-05-10T02:42:05.604Z,961.00
2023-05-10T02:43:05.595Z,956.00
2023-05-10T02:44:05.576Z,957.00
2023-05-10T02:45:05.555Z,960.00
2023-05-10T02:46:05.578Z,955.00
2023-05-10T02:47:05.517Z,955.00
2023-05-10T02:48:05.571Z,956.00
2023-05-10T02:49:05.499Z,955.00
2023-05-10T02:50:05.475Z,953.00
2023-05-10T02:51:05.459Z,954.00
2023-05-10T02:52:05.443Z,952.00
2023-05-10T02:53:05.431Z,948.00
2023-05-10T02:54:05.408Z,952.00
2023-05-10T02:55:05.387Z,948.00
2023-05-10T02:56:05.371Z,951.00
2023-05-10T02:57:05.376Z,944.00
2023-05-10T02:58:05.356Z,953.00
2023-05-10T02:59:05.332Z,952.00
2023-05-10T03:00:05.321Z,949.00
2023-05-10T03:01:05.342Z,948.00
2023-05-10T03:02:05.294Z,948.00
2023-05-10T03:03:05.309Z,951.00
2023-05-10T03:04:05.412Z,947.00
2023-05-10T03:05:05.265Z,950.00
2023-05-10T03:06:05.250Z,948.00
2023-05-10T03:07:05.245Z,946.00
2023-05-10T03:08:05.265Z,948.00
2023-05-10T03:09:05.238Z,944.00
2023-05-10T03:10:05.224Z,943.00
2023-05-10T03:11:05.217Z,950.00
2023-05-10T03:12:05.219Z,942.00
2023-05-10T03:13:05.254Z,943.00
2023-05-10T03:14:05.209Z,947.00
2023-05-10T03:15:05.196Z,943.00
2023-05-10T03:16:05.207Z,943.00
2023-05-10T03:17:05.179Z,944.00
2023-05-10T03:18:05.202Z,941.00
2023-05-10T03:19:05.157Z,944.00
2023-05-10T03:20:05.167Z,947.00
2023-05-10T03:21:05.140Z,944.00
2023-05-10T03:22:05.133Z,941.00
2023-05-10T03:23:05.123Z,939.00
2023-05-10T03:24:05.112Z,938.00
2023-05-10T03:25:05.099Z,937.00
2023-05-10T03:26:05.096Z,939.00
2023-05-10T03:27:05.078Z,939.00
2023-05-10T03:28:05.071Z,935.00
2023-05-10T03:29:05.073Z,932.00
2023-05-10T03:30:05.066Z,935.00
2023-05-10T03:31:05.100Z,935.00
2023-05-10T03:32:05.057Z,936.00
2023-05-10T03:33:05.055Z,934.00
2023-05-10T03:34:05.046Z,935.00
2023-05-10T03:35:05.031Z,932.00
2023-05-10T03:36:05.027Z,936.00
2023-05-10T03:37:05.019Z,935.00
2023-05-10T03:38:05.015Z,933.00
2023-05-10T03:39:05.012Z,935.00
2023-05-10T03:40:05.013Z,933.00
2023-05-10T03:41:04.983Z,934.00
2023-05-10T03:42:04.987Z,930.00
2023-05-10T03:43:04.979Z,935.00
2023-05-10T03:44:04.989Z,932.00
2023-05-10T03:45:04.984Z,930.00
2023-05-10T03:46:04.978Z,929.00
2023-05-10T03:47:05.020Z,929.00
2023-05-10T03:48:05.057Z,923.00
2023-05-10T03:49:04.986Z,929.00
2023-05-10T03:50:04.981Z,924.00
2023-05-10T03:51:05.051Z,924.00
2023-05-10T03:52:04.978Z,925.00
2023-05-10T03:53:04.968Z,922.00
2023-05-10T03:54:04.970Z,927.00
2023-05-10T03:55:04.988Z,923.00
2023-05-10T03:56:04.960Z,927.00
2023-05-10T03:57:04.968Z,919.00
2023-05-10T03:58:04.952Z,921.00
2023-05-10T03:59:04.957Z,921.00
2023-05-10T04:00:05.008Z,921.00
2023-05-10T04:01:04.973Z,922.00
2023-05-10T04:02:04.956Z,916.00
2023-05-10T04:03:04.997Z,918.00
2023-05-10T04:04:04.973Z,917.00
2023-05-10T04:05:04.948Z,918.00
2023-05-10T04:06:04.986Z,913.00
2023-05-10T04:07:04.932Z,914.00
2023-05-10T04:08:04.930Z,914.00
2023-05-10T04:09:04.955Z,920.00
2023-05-10T04:10:04.937Z,919.00
2023-05-10T04:11:04.926Z,914.00
2023-05-10T04:12:04.930Z,915.00
2023-05-10T04:13:04.966Z,912.00
2023-05-10T04:14:04.937Z,914.00
2023-05-10T04:15:04.925Z,916.00
2023-05-10T04:16:04.927Z,910.00
2023-05-10T04:17:04.948Z,911.00
2023-05-10T04:18:06.568Z,910.00
2023-05-10T04:19:04.913Z,917.00
2023-05-10T04:20:04.883Z,914.00
2023-05-10T04:21:04.859Z,910.00
2023-05-10T04:22:04.852Z,909.00
2023-05-10T04:23:04.832Z,915.00
2023-05-10T04:24:04.809Z,912.00
2023-05-10T04:25:04.794Z,912.00
2023-05-10T04:26:04.761Z,904.00
2023-05-10T04:27:04.734Z,908.00
2023-05-10T04:28:04.730Z,904.00
2023-05-10T04:29:04.720Z,904.00
2023-05-10T04:30:04.685Z,903.00
2023-05-10T04:31:04.695Z,906.00
2023-05-10T04:32:04.635Z,904.00
2023-05-10T04:33:04.650Z,901.00
2023-05-10T04:34:04.609Z,906.00
2023-05-10T04:35:04.597Z,898.00
2023-05-10T04:36:04.561Z,902.00
2023-05-10T04:37:04.534Z,897.00
2023-05-10T04:38:04.520Z,898.00
2023-05-10T04:39:04.497Z,896.00
2023-05-10T04:40:04.469Z,897.00
2023-05-10T04:41:04.473Z,899.00
2023-05-10T04:42:04.454Z,897.00
2023-05-10T04:43:04.419Z,893.00
2023-05-10T04:44:04.399Z,895.00
2023-05-10T04:45:04.374Z,891.00
2023-05-10T04:46:04.378Z,891.00
2023-05-10T04:47:04.354Z,892.00
2023-05-10T04:48:04.347Z,896.00
2023-05-10T04:49:04.283Z,890.00
2023-05-10T04:50:04.257Z,891.00
2023-05-10T04:51:04.235Z,892.00
2023-05-10T04:52:04.221Z,887.00
2023-05-10T04:53:04.195Z,886.00
2023-05-10T04:54:06.471Z,880.00
2023-05-10T04:55:04.159Z,881.00
2023-05-10T04:56:04.127Z,884.00
2023-05-10T04:57:04.119Z,886.00
2023-05-10T04:58:04.094Z,888.00
2023-05-10T04:59:04.076Z,888.00
2023-05-10T05:00:04.054Z,887.00
2023-05-10T05:01:04.046Z,884.00
2023-05-10T05:02:04.070Z,882.00
2023-05-10T05:03:04.116Z,883.00
2023-05-10T05:04:03.978Z,882.00
2023-05-10T05:05:03.957Z,884.00
2023-05-10T05:06:03.946Z,880.00
2023-05-10T05:07:03.917Z,875.00
2023-05-10T05:08:03.894Z,879.00
2023-05-10T05:09:03.877Z,877.00
2023-05-10T05:10:03.868Z,872.00
2023-05-10T05:11:03.850Z,874.00
2023-05-10T05:12:03.826Z,875.00
2023-05-10T05:13:04.751Z,875.00
2023-05-10T05:14:03.794Z,886.00
2023-05-10T05:15:03.758Z,884.00
2023-05-10T05:16:03.857Z,871.00
2023-05-10T05:17:03.764Z,874.00
2023-05-10T05:18:03.768Z,873.00
2023-05-10T05:19:03.695Z,810.00
2023-05-10T05:20:03.667Z,793.00
2023-05-10T05:21:03.658Z,795.00
2023-05-10T05:22:03.646Z,796.00
2023-05-10T05:23:03.627Z,803.00
2023-05-10T05:24:03.610Z,806.00
2023-05-10T05:25:03.613Z,888.00
2023-05-10T05:26:03.642Z,996.00
2023-05-10T05:27:03.570Z,1022.00
2023-05-10T05:28:03.559Z,1046.00
2023-05-10T05:29:03.542Z,1039.00
2023-05-10T05:30:03.509Z,1043.00
2023-05-10T05:31:03.504Z,1009.00
2023-05-10T05:32:03.503Z,931.00
2023-05-10T05:33:03.473Z,907.00
2023-05-10T05:34:03.441Z,912.00
2023-05-10T05:35:03.467Z,936.00
2023-05-10T05:36:03.435Z,946.00
2023-05-10T05:37:03.382Z,954.00
2023-05-10T05:38:03.366Z,964.00
2023-05-10T05:39:03.348Z,974.00
2023-05-10T05:40:03.312Z,979.00
2023-05-10T05:41:03.308Z,999.00
2023-05-10T05:42:03.271Z,1011.00
2023-05-10T05:43:03.254Z,1034.00
2023-05-10T05:44:03.241Z,1059.00
2023-05-10T05:45:03.278Z,1080.00
2023-05-10T05:46:03.230Z,1117.00
2023-05-10T05:47:03.157Z,1150.00
2023-05-10T05:48:03.201Z,1178.00
2023-05-10T05:49:03.111Z,1180.00
2023-05-10T05:50:03.092Z,1187.00
2023-05-10T05:51:04.169Z,1196.00
2023-05-10T05:52:03.057Z,1212.00
2023-05-10T05:53:03.000Z,1208.00
2023-05-10T05:54:02.992Z,1197.00
2023-05-10T05:55:02.997Z,1214.00
2023-05-10T05:56:02.949Z,1219.00
2023-05-10T05:57:02.916Z,1230.00
2023-05-10T05:58:02.923Z,1253.00
2023-05-10T05:59:03.727Z,1260.00
2023-05-10T06:00:02.857Z,1299.00
2023-05-10T06:01:02.853Z,1320.00
2023-05-10T06:02:02.863Z,1328.00
2023-05-10T06:03:02.949Z,1314.00
2023-05-10T06:04:02.935Z,1307.00
2023-05-10T06:05:02.803Z,1298.00
2023-05-10T06:06:02.811Z,1277.00
2023-05-10T06:07:02.784Z,1261.00
2023-05-10T06:08:02.769Z,1254.00
2023-05-10T06:09:02.745Z,1245.00
2023-05-10T06:10:03.669Z,1234.00
2023-05-10T06:11:02.734Z,1235.00
2023-05-10T06:12:02.715Z,1237.00
2023-05-10T06:13:02.711Z,1237.00
2023-05-10T06:14:02.663Z,1238.00
2023-05-10T06:15:02.629Z,1235.00
2023-05-10T06:16:02.604Z,1240.00
2023-05-10T06:17:02.741Z,1236.00
2023-05-10T06:18:02.580Z,1233.00
2023-05-10T06:19:02.531Z,1233.00
2023-05-10T06:20:02.525Z,1231.00
2023-05-10T06:21:02.554Z,1232.00
2023-05-10T06:22:02.465Z,1231.00
2023-05-10T06:23:02.433Z,1149.00
2023-05-10T06:24:02.403Z,1057.00
2023-05-10T06:25:02.379Z,860.00
2023-05-10T06:26:02.349Z,773.00
2023-05-10T06:27:02.350Z,811.00
2023-05-10T06:28:02.321Z,648.00
2023-05-10T06:29:02.343Z,636.00
2023-05-10T06:30:12.230Z,654.00
2023-05-10T06:31:03.401Z,655.00
2023-05-10T06:32:02.296Z,654.00
2023-05-10T06:33:02.306Z,632.00
2023-05-10T06:34:02.277Z,622.00
2023-05-10T06:35:02.277Z,612.00
2023-05-10T06:36:02.259Z,630.00
2023-05-10T06:37:02.251Z,644.00
2023-05-10T06:38:02.258Z,656.00
2023-05-10T06:39:02.251Z,657.00
2023-05-10T06:40:02.242Z,643.00
2023-05-10T06:41:02.240Z,619.00
2023-05-10T06:42:02.307Z,597.00
2023-05-10T06:43:02.361Z,569.00
2023-05-10T06:44:02.453Z,568.00
2023-05-10T06:45:02.476Z,558.00
2023-05-10T06:46:02.561Z,583.00
2023-05-10T06:47:02.586Z,595.00
2023-05-10T06:48:02.662Z,590.00
2023-05-10T06:49:02.655Z,577.00
2023-05-10T06:50:02.694Z,568.00
2023-05-10T06:51:02.718Z,571.00
2023-05-10T06:52:02.735Z,579.00
2023-05-10T06:53:02.753Z,594.00
2023-05-10T06:54:02.784Z,608.00
2023-05-10T06:55:02.797Z,620.00
2023-05-10T06:56:02.909Z,617.00
2023-05-10T06:57:04.205Z,608.00
2023-05-10T06:58:02.798Z,605.00
2023-05-10T06:59:02.840Z,591.00
2023-05-10T07:00:02.764Z,604.00
2023-05-10T07:01:02.791Z,604.00
2023-05-10T07:02:02.804Z,589.00
2023-05-10T07:03:02.769Z,591.00
2023-05-10T07:04:02.767Z,584.00
2023-05-10T07:05:03.453Z,593.00
2023-05-10T07:06:02.661Z,598.00
2023-05-10T07:07:02.650Z,595.00
2023-05-10T07:08:02.631Z,588.00
2023-05-10T07:09:02.621Z,577.00
2023-05-10T07:10:02.597Z,567.00
2023-05-10T07:11:02.559Z,551.00
2023-05-10T07:12:02.676Z,552.00
2023-05-10T07:13:02.594Z,558.00
2023-05-10T07:14:02.494Z,564.00
2023-05-10T07:15:02.479Z,562.00
2023-05-10T07:16:02.484Z,555.00
2023-05-10T07:17:02.452Z,559.00
2023-05-10T07:18:02.543Z,573.00
2023-05-10T07:19:02.401Z,608.00
2023-05-10T07:20:02.382Z,607.00
2023-05-10T07:21:02.399Z,653.00
2023-05-10T07:22:03.270Z,715.00
2023-05-10T07:23:02.349Z,792.00
2023-05-10T07:24:02.300Z,848.00
2023-05-10T07:25:02.292Z,927.00
2023-05-10T07:26:02.258Z,939.00
2023-05-10T07:27:02.227Z,959.00
2023-05-10T07:28:02.179Z,998.00
2023-05-10T07:29:02.148Z,1030.00
2023-05-10T07:30:02.132Z,1070.00
2023-05-10T07:31:02.129Z,1119.00
2023-05-10T07:32:02.082Z,1141.00
2023-05-10T07:33:02.074Z,1174.00
2023-05-10T07:34:01.974Z,1179.00
2023-05-10T07:35:01.965Z,1200.00
2023-05-10T07:36:01.917Z,1247.00
2023-05-10T07:37:01.870Z,1284.00
2023-05-10T07:38:01.835Z,1272.00
2023-05-10T07:39:01.792Z,1302.00
2023-05-10T07:40:01.762Z,1304.00
2023-05-10T07:41:01.749Z,1315.00
2023-05-10T07:42:01.659Z,1334.00
2023-05-10T07:43:01.612Z,1394.00
2023-05-10T07:44:01.574Z,1396.00
2023-05-10T07:45:01.535Z,1428.00
2023-05-10T07:46:01.512Z,1473.00
2023-05-10T07:47:01.431Z,1493.00
2023-05-10T07:48:01.459Z,1531.00
2023-05-10T07:49:01.353Z,1551.00
2023-05-10T07:50:01.352Z,1603.00
2023-05-10T07:51:01.355Z,1631.00
2023-05-10T07:52:01.326Z,1644.00
2023-05-10T07:53:01.316Z,1690.00
2023-05-10T07:54:01.327Z,1697.00
2023-05-10T07:55:01.280Z,1724.00
2023-05-10T07:56:01.278Z,1743.00
2023-05-10T07:57:01.256Z,1772.00
2023-05-10T07:58:01.253Z,1804.00
2023-05-10T07:59:01.223Z,1805.00
2023-05-10T08:00:01.217Z,1831.00
2023-05-10T08:01:01.175Z,1840.00
2023-05-10T08:02:01.162Z,1878.00
2023-05-10T08:03:01.215Z,1874.00
2023-05-10T08:04:01.223Z,1888.00
2023-05-10T08:05:01.074Z,1897.00
2023-05-10T08:06:01.051Z,1932.00
2023-05-10T08:07:01.011Z,1946.00
2023-05-10T08:08:00.984Z,1984.00
2023-05-10T08:09:00.973Z,1999.00
2023-05-10T08:10:00.957Z,2031.00
2023-05-10T08:11:00.891Z,2038.00
2023-05-10T08:12:00.868Z,2066.00
2023-05-10T08:13:00.829Z,2081.00
2023-05-10T08:14:00.798Z,2083.00
2023-05-10T08:15:01.147Z,2065.00
2023-05-10T08:16:00.911Z,1646.00
2023-05-10T08:17:00.745Z,1302.00
2023-05-10T08:18:00.771Z,1007.00
2023-05-10T08:19:00.833Z,856.00
2023-05-10T08:20:00.792Z,806.00
2023-05-10T08:21:00.807Z,740.00
2023-05-10T08:22:00.864Z,668.00
2023-05-10T08:23:00.896Z,581.00
2023-05-10T08:24:00.895Z,526.00
2023-05-10T08:25:00.896Z,505.00
2023-05-10T08:26:00.872Z,564.00
2023-05-10T08:27:00.854Z,627.00
2023-05-10T08:28:00.830Z,652.00
2023-05-10T08:29:00.890Z,713.00
2023-05-10T08:30:01.142Z,727.00
2023-05-10T08:31:00.928Z,762.00
2023-05-10T08:32:00.944Z,886.00
2023-05-10T08:33:01.050Z,872.00
2023-05-10T08:34:01.787Z,920.00
2023-05-10T08:35:00.972Z,949.00
2023-05-10T08:36:01.957Z,951.00
2023-05-10T08:37:00.903Z,958.00
2023-05-10T08:38:00.884Z,975.00
2023-05-10T08:39:00.814Z,1017.00
2023-05-10T08:40:00.799Z,1106.00
2023-05-10T08:41:00.785Z,1138.00
2023-05-10T08:42:00.703Z,1145.00
2023-05-10T08:43:00.674Z,1172.00
2023-05-10T08:44:00.623Z,1187.00
2023-05-10T08:45:00.591Z,1242.00
2023-05-10T08:46:00.547Z,1259.00
2023-05-10T08:47:00.668Z,1262.00
2023-05-10T08:48:00.553Z,1290.00
2023-05-10T08:49:00.425Z,1322.00
2023-05-10T08:50:00.398Z,1337.00
2023-05-10T08:51:00.350Z,1407.00
2023-05-10T08:52:00.307Z,1410.00
2023-05-10T08:53:00.256Z,1464.00
2023-05-10T08:54:00.207Z,1505.00
2023-05-10T08:55:00.201Z,1527.00
2023-05-10T08:56:00.166Z,1535.00
2023-05-10T08:57:00.150Z,1562.00
2023-05-10T08:58:00.098Z,1603.00
2023-05-10T08:59:00.073Z,1643.00
2023-05-10T09:00:00.051Z,1674.00
2023-05-10T09:01:00.005Z,1697.00
2023-05-10T09:01:59.964Z,1743.00
2023-05-10T09:02:59.955Z,1784.00
2023-05-10T09:04:00.047Z,1794.00
2023-05-10T09:05:00.025Z,1822.00
2023-05-10T09:05:59.845Z,1868.00
2023-05-10T09:06:59.817Z,1906.00
2023-05-10T09:07:59.755Z,1997.00
2023-05-10T09:08:59.705Z,2002.00
2023-05-10T09:09:59.667Z,1990.00
2023-05-10T09:11:00.632Z,1992.00
2023-05-10T09:11:59.580Z,1999.00
2023-05-10T09:12:59.739Z,2020.00
2023-05-10T09:13:59.500Z,2062.00
2023-05-10T09:14:59.442Z,2144.00
2023-05-10T09:16:04.439Z,2176.00
2023-05-10T09:17:00.384Z,2177.00
2023-05-10T09:17:59.359Z,2176.00
2023-05-10T09:18:59.312Z,2161.00
2023-05-10T09:19:59.313Z,2164.00
2023-05-10T09:20:59.187Z,2190.00
2023-05-10T09:21:59.140Z,2172.00
2023-05-10T09:22:59.090Z,2177.00
2023-05-10T09:23:59.080Z,2165.00
2023-05-10T09:24:59.009Z,2187.00
2023-05-10T09:25:58.953Z,2179.00
2023-05-10T09:26:58.903Z,2175.00
2023-05-10T09:27:58.876Z,2191.00
2023-05-10T09:28:58.810Z,2180.00
2023-05-10T09:29:58.766Z,2181.00
2023-05-10T09:30:59.329Z,2178.00
2023-05-10T09:31:58.756Z,2189.00
2023-05-10T09:32:58.801Z,2191.00
2023-05-10T09:33:58.739Z,2204.00
2023-05-10T09:34:58.728Z,2170.00
2023-05-10T09:35:58.740Z,2171.00
2023-05-10T09:36:58.716Z,2182.00
2023-05-10T09:37:58.746Z,2188.00
2023-05-10T09:38:58.699Z,2177.00
2023-05-10T09:39:58.693Z,2174.00
2023-05-10T09:40:58.703Z,2179.00
2023-05-10T09:41:58.702Z,2168.00
2023-05-10T09:42:58.689Z,2172.00
2023-05-10T09:43:58.692Z,2190.00
2023-05-10T09:44:58.683Z,2185.00
2023-05-10T09:45:58.697Z,2172.00
2023-05-10T09:46:58.697Z,2184.00
2023-05-10T09:47:58.751Z,2175.00
2023-05-10T09:48:58.710Z,2207.00
2023-05-10T09:49:58.700Z,2190.00
2023-05-10T09:50:58.712Z,2174.00
2023-05-10T09:51:58.705Z,2185.00
2023-05-10T09:52:58.730Z,2166.00
2023-05-10T09:53:58.714Z,2175.00
2023-05-10T09:54:58.732Z,2177.00
2023-05-10T09:55:58.735Z,2166.00
2023-05-10T09:56:58.746Z,2166.00
2023-05-10T09:57:58.739Z,2155.00
2023-05-10T09:58:58.746Z,2156.00
2023-05-10T09:59:58.747Z,2157.00
2023-05-10T10:00:58.757Z,2160.00
2023-05-10T10:01:58.917Z,2154.00
2023-05-10T10:02:58.885Z,2141.00
2023-05-10T10:03:58.785Z,2120.00
2023-05-10T10:04:58.848Z,2128.00
2023-05-10T10:05:58.836Z,2114.00
2023-05-10T10:06:58.825Z,2124.00
2023-05-10T10:07:58.841Z,2116.00
2023-05-10T10:08:59.756Z,2105.00
2023-05-10T10:09:58.864Z,2115.00
2023-05-10T10:10:58.876Z,2116.00
2023-05-10T10:11:58.895Z,2101.00
2023-05-10T10:12:58.899Z,2083.00
2023-05-10T10:13:58.913Z,2088.00
2023-05-10T10:14:58.932Z,2094.00
2023-05-10T10:15:59.125Z,2074.00
2023-05-10T10:17:06.713Z,2081.00
2023-05-10T10:17:59.955Z,2082.00
2023-05-10T10:18:58.903Z,2083.00
2023-05-10T10:19:58.840Z,2086.00
2023-05-10T10:20:58.794Z,2083.00
2023-05-10T10:21:58.757Z,2079.00
2023-05-10T10:22:58.736Z,2086.00
2023-05-10T10:23:58.708Z,2080.00
2023-05-10T10:24:58.640Z,2071.00
2023-05-10T10:25:58.603Z,2077.00
2023-05-10T10:26:58.571Z,2057.00
2023-05-10T10:27:58.574Z,2053.00
2023-05-10T10:28:58.604Z,2062.00
2023-05-10T10:29:58.603Z,2049.00
2023-05-10T10:30:58.683Z,2042.00
2023-05-10T10:31:58.777Z,2053.00
2023-05-10T10:32:58.702Z,2053.00
2023-05-10T10:33:58.671Z,2042.00
2023-05-10T10:34:59.276Z,2049.00
2023-05-10T10:35:58.707Z,2041.00
2023-05-10T10:36:58.723Z,2029.00
2023-05-10T10:37:58.743Z,2034.00
2023-05-10T10:38:58.758Z,2023.00
2023-05-10T10:39:58.772Z,2032.00
2023-05-10T10:40:58.794Z,2027.00
2023-05-10T10:41:58.819Z,2012.00
2023-05-10T10:42:58.843Z,2018.00
2023-05-10T10:43:58.825Z,2029.00
2023-05-10T10:44:58.838Z,2009.00
2023-05-10T10:45:58.857Z,2001.00
2023-05-10T10:46:58.902Z,1992.00
2023-05-10T10:47:58.922Z,2003.00
2023-05-10T10:48:58.914Z,2014.00
2023-05-10T10:49:58.990Z,1998.00
2023-05-10T10:50:58.960Z,2004.00
2023-05-10T10:51:58.965Z,1996.00
2023-05-10T10:52:59.022Z,1979.00
2023-05-10T10:53:59.008Z,1985.00
2023-05-10T10:54:59.099Z,1981.00
2023-05-10T10:55:59.069Z,1972.00
2023-05-10T10:56:59.064Z,1975.00
2023-05-10T10:57:59.089Z,1963.00
2023-05-10T10:58:59.097Z,1952.00
2023-05-10T10:59:59.115Z,1961.00
2023-05-10T11:00:59.228Z,1959.00
2023-05-10T11:01:59.169Z,1948.00
2023-05-10T11:02:59.254Z,1940.00
2023-05-10T11:03:59.246Z,1925.00
2023-05-10T11:04:59.243Z,1925.00
2023-05-10T11:05:59.260Z,1929.00
2023-05-10T11:06:59.283Z,1929.00
2023-05-10T11:07:59.317Z,1934.00
2023-05-10T11:08:59.370Z,1928.00
2023-05-10T11:09:59.377Z,1928.00
2023-05-10T11:10:59.398Z,1903.00
2023-05-10T11:11:59.426Z,1924.00
2023-05-10T11:12:59.437Z,1912.00
2023-05-10T11:13:59.465Z,1912.00
2023-05-10T11:14:59.505Z,1916.00
2023-05-10T11:15:59.526Z,1898.00
2023-05-10T11:16:59.605Z,1911.00
2023-05-10T11:17:59.616Z,1903.00
2023-05-10T11:18:59.630Z,1901.00
2023-05-10T11:19:59.635Z,1892.00
2023-05-10T11:20:59.675Z,1885.00
2023-05-10T11:21:59.744Z,1897.00
2023-05-10T11:22:59.747Z,1875.00
2023-05-10T11:23:59.766Z,1881.00
2023-05-10T11:24:59.820Z,1872.00
2023-05-10T11:25:59.826Z,1862.00
2023-05-10T11:26:59.859Z,1872.00
2023-05-10T11:27:59.901Z,1871.00
2023-05-10T11:28:59.937Z,1878.00
2023-05-10T11:29:59.964Z,1882.00
2023-05-10T11:31:00.014Z,1875.00
2023-05-10T11:32:00.105Z,1871.00
2023-05-10T11:33:00.120Z,1867.00
2023-05-10T11:34:00.141Z,1866.00
2023-05-10T11:35:00.153Z,1842.00
2023-05-10T11:36:00.180Z,1859.00
2023-05-10T11:37:00.231Z,1871.00
2023-05-10T11:38:00.238Z,1843.00
2023-05-10T11:39:00.271Z,1843.00
2023-05-10T11:40:00.317Z,1853.00
2023-05-10T11:41:00.381Z,1862.00
2023-05-10T11:42:00.395Z,1851.00
2023-05-10T11:43:00.420Z,1827.00
2023-05-10T11:44:00.467Z,1824.00
2023-05-10T11:45:00.488Z,1838.00
2023-05-10T11:46:00.577Z,1818.00
2023-05-10T11:47:00.558Z,1833.00
2023-05-10T11:48:00.674Z,1812.00
2023-05-10T11:49:00.651Z,1828.00
2023-05-10T11:50:00.667Z,1806.00
2023-05-10T11:51:00.703Z,1814.00
2023-05-10T11:52:00.738Z,1819.00
2023-05-10T11:53:00.764Z,1819.00
2023-05-10T11:54:00.884Z,1821.00
2023-05-10T11:55:00.835Z,1813.00
2023-05-10T11:56:00.880Z,1814.00
2023-05-10T11:57:00.897Z,1800.00
2023-05-10T11:58:00.927Z,1800.00
2023-05-10T11:59:00.958Z,1808.00
2023-05-10T12:00:01.213Z,1793.00
2023-05-10T12:01:01.054Z,1808.00
2023-05-10T12:02:01.071Z,1803.00
2023-05-10T12:03:01.238Z,1785.00
2023-05-10T12:04:01.388Z,1791.00
2023-05-10T12:05:01.328Z,1793.00
2023-05-10T12:06:01.235Z,1778.00
2023-05-10T12:07:01.245Z,1777.00
2023-05-10T12:08:01.279Z,1781.00
2023-05-10T12:09:01.319Z,1778.00
2023-05-10T12:10:01.377Z,1762.00
2023-05-10T12:11:01.400Z,1780.00
2023-05-10T12:12:01.418Z,1781.00
2023-05-10T12:13:01.454Z,1771.00
2023-05-10T12:14:01.499Z,1766.00
2023-05-10T12:15:01.534Z,1750.00